NY2 weather

Camillus Airport
Camillus, New York, United States

Public forecast

Using degrees Fahrenheit for public forecast. Weather courtesy of forecast.io.

METAR (pilot weather report)

Closest report is Syracuse Hancock International Airport, 7.9 nm (14.7 km) ENE. Retrieved 2019/09/23 05:54 UTC (43 minutes ago):

KSYR 230554Z 17009KT 10SM SCT075 SCT180 BKN200 25/17 A2986 RMK AO2 SLP106 T02500172 10261 20244 56014

TAF (pilot weather forecast)

Closest forecast is Syracuse Hancock International Airport, 7.9 nm (14.7 km) ENE. Retrieved 2019/09/23 06:39 UTC (0 seconds ago):

TAF KSYR 230536Z 2306/2406 20008KT P6SM SCT070 BKN180 FM231300 24012G20KT P6SM BKN060 OVC120 FM231800 26012G20KT P6SM -SHRA BKN045 OVC080 FM240000 27012KT P6SM SCT045 BKN080